Meteo Giornale » Osservazioni meteo Italia » Falconara

ore: 04:50 - Osservazioni Meteo Falconara
Lat. 43° 37' N Lon. 13° 22' E Alt. 12 metri s.l.m.

sereno Europe/Rome

9 °C

Sereno

Temp. 24 Ore

9 °C

21 °C

Nord

3.7 Km/h

Dew point 8 °C

Umidità 93 %

Visibilità  10 Km

Il sole sorge alle ore 06:03

Il sole tramonta alle ore 20:04

Data e Ora Cielo e Fenomeni T °C DP °C Um. % Pres. hPa Vis. km Vento km/h
Oggi h: 04:50 sereno Sereno 9 8 93 1011 10 N 3.7
Oggi h: 03:50 sereno Sereno 9 7 87 1011 10 N 3.7
Oggi h: 02:50 sereno Sereno 11 8 81 1011 10 N 5.5
Oggi h: 01:50 sereno Sereno 11 9 87 1012 10 O/SO 7.4
Oggi h: 00:50 sereno Sereno 12 9 81 1012 10 N 5.5
Ieri h: 22:50 sereno Sereno 15 10 72 1012 10 S/SE 11.1
Ieri h: 21:50 sereno Sereno 14 11 82 1012 10 S 7.4
Ieri h: 20:50 sereno Sereno 15 11 76 1012 10 S/SE 11.1
Ieri h: 19:50 poco_nuvoloso Poco Nuvoloso 16 11 72 1012 10 N 3.7
Ieri h: 18:50 nuvoloso Nuvoloso 17 11 67 1012 10 SE 13
Ieri h: 17:50 nuvoloso Nuvoloso 19 10 55 1013 10 SE 11.1
Ieri h: 16:50 poco_nuvoloso Poco Nuvoloso 21 10 49 1013 10 E 13
Ieri h: 15:50 poco_nuvoloso Poco Nuvoloso 21 10 49 1013 10 E/NE 13
Ieri h: 14:50 poco_nuvoloso Poco Nuvoloso 20 11 56 1013 10 NE 14.8
Ieri h: 13:50 sereno Sereno 19 12 63 1014 10 NE 18.5
Ieri h: 12:50 sereno Sereno 20 7 42 1014 10 NE 13
Ieri h: 11:50 sereno Sereno 18 10 59 1015 10 NE 14.8
Ieri h: 10:50 sereno Sereno 17 12 72 1015 10 N/NE 14.8
Ieri h: 09:50 sereno Sereno 17 10 63 1015 10 NE 9.3
Ieri h: 08:50 sereno Sereno 16 11 72 1015 10 N/NE 9.3
Ieri h: 07:50 sereno Sereno 15 11 76 1015 10 N 3.7
Ieri h: 06:50 sereno Sereno 9 6 81 1015 10 N 3.7
Ieri h: 05:50 sereno Sereno 10 6 76 1015 10 N 5.5